createdAt,value
2022-10-10T00:02:39.001Z,8.4
2022-10-10T00:17:39.001Z,8.3
2022-10-10T00:32:39.004Z,8.2
2022-10-10T00:47:39.002Z,8.2
2022-10-10T01:02:39.008Z,8.1
2022-10-10T01:17:39.000Z,7.9
2022-10-10T01:32:39.001Z,8
2022-10-10T01:47:39.009Z,8
2022-10-10T02:02:38.995Z,8.2
2022-10-10T02:17:39.002Z,8.8
2022-10-10T02:32:39.002Z,8.9
2022-10-10T02:47:39.002Z,8.9
2022-10-10T03:02:39.008Z,9.1
2022-10-10T03:17:39.008Z,9.1
2022-10-10T03:32:39.030Z,9.4
2022-10-10T03:47:39.019Z,9.4
2022-10-10T04:02:39.020Z,9.4
2022-10-10T04:17:39.001Z,9.8
2022-10-10T04:32:39.003Z,9.7
2022-10-10T04:47:39.004Z,9.6
2022-10-10T05:02:39.000Z,9.6
2022-10-10T05:17:39.005Z,9.6
2022-10-10T05:32:39.001Z,9.5
2022-10-10T05:47:39.000Z,9.4
2022-10-10T06:02:39.047Z,10.1
2022-10-10T06:17:39.010Z,10.2
2022-10-10T06:32:39.024Z,10.1
2022-10-10T06:47:39.001Z,10.5
2022-10-10T07:02:39.018Z,10.6
2022-10-10T07:17:39.022Z,10.4
2022-10-10T07:32:39.005Z,10.6
2022-10-10T07:47:39.020Z,10.9
2022-10-10T08:02:39.003Z,11.6
2022-10-10T08:17:39.014Z,12.6
2022-10-10T08:32:39.005Z,13.1
2022-10-10T08:47:39.005Z,14.1
2022-10-10T09:02:53.022Z,14.4
2022-10-10T09:17:39.033Z,14.7
2022-10-10T09:32:39.004Z,15.2
2022-10-10T09:47:39.003Z,15.8
2022-10-10T10:02:39.012Z,16.2
2022-10-10T10:17:39.013Z,16.6
2022-10-10T10:32:39.001Z,16.8
2022-10-10T10:47:39.009Z,17.1
2022-10-10T11:02:55.265Z,17.1
2022-10-10T11:17:39.002Z,17.4
2022-10-10T11:32:39.014Z,17.4
2022-10-10T11:47:39.002Z,17.7
2022-10-10T12:02:39.012Z,17.6
2022-10-10T12:17:39.017Z,17.7
2022-10-10T12:32:39.010Z,17.8
2022-10-10T12:48:00.230Z,18.1
2022-10-10T13:02:39.005Z,18
2022-10-10T13:17:39.010Z,18.2
2022-10-10T13:32:39.002Z,17.7
2022-10-10T13:47:39.006Z,17.6
2022-10-10T14:02:39.005Z,17.2
2022-10-10T14:17:39.002Z,17.1
2022-10-10T14:32:39.002Z,16.9
2022-10-10T14:47:39.014Z,16.5
2022-10-10T15:02:42.049Z,16.6
2022-10-10T15:17:39.004Z,16.7
2022-10-10T15:32:39.006Z,17.5
2022-10-10T15:47:41.843Z,16.8
2022-10-10T16:02:39.010Z,16.5
2022-10-10T16:17:39.013Z,16.1
2022-10-10T16:32:42.260Z,15.8
2022-10-10T16:47:39.007Z,15.5
2022-10-10T17:02:39.005Z,15.2
2022-10-10T17:17:39.004Z,15.1
2022-10-10T17:32:38.998Z,14.6
2022-10-10T17:47:39.003Z,14.2
2022-10-10T18:02:39.008Z,13.6
2022-10-10T18:17:39.006Z,12.9
2022-10-10T18:32:39.008Z,12.8
2022-10-10T18:47:39.013Z,12.8
2022-10-10T19:02:39.006Z,12.8
2022-10-10T19:17:39.003Z,12.6
2022-10-10T19:32:39.031Z,12.5
2022-10-10T19:47:39.013Z,12.5
2022-10-10T20:02:39.012Z,12.4
2022-10-10T20:17:39.019Z,11.9
2022-10-10T20:32:39.008Z,11.6
2022-10-10T20:47:39.005Z,11.5
2022-10-10T21:02:39.004Z,11.2
2022-10-10T21:17:39.012Z,10.9
2022-10-10T21:32:39.002Z,10.8
2022-10-10T21:47:39.012Z,10.5
2022-10-10T22:02:39.011Z,10.2
2022-10-10T22:17:39.002Z,10.1
2022-10-10T22:32:38.997Z,10
2022-10-10T22:47:38.997Z,9.9
2022-10-10T23:02:39.020Z,9.6
2022-10-10T23:17:39.002Z,9.7
2022-10-10T23:32:39.006Z,9.5
2022-10-10T23:47:39.006Z,9.4
